Time;durP1;ratioP1;P1;durP2;ratioP2;P2;SDS_P1;SDS_P2;PMS_P1;PMS_P2;Temp;Humidity;BMP_temperature;BMP_pressure;BME280_temperature;BME280_humidity;BME280_pressure;Samples;Min_cycle;Max_cycle;Signal;HPM_P1;HPM_P2
2022/06/17 00:01:06;;;;;;;;;;;;;;;20.96;60.06;101060.59;7401298;19;1847;-49
2022/06/17 00:03:36;;;;;;;;;;;;;;;20.98;59.84;101053.25;7401649;19;1857;-49
2022/06/17 00:06:14;;;;;;;;;;;;;;;20.93;59.74;101047.47;7400514;19;1773;-50
2022/06/17 00:08:45;;;;;;;;;;;;;;;20.86;60.02;101039.09;7401072;19;1806;-49
2022/06/17 00:11:15;;;;;;;;;;;;;;;20.81;60.20;101029.75;7401934;19;1509;-50
2022/06/17 00:13:46;;;;;;;;;;;;;;;20.92;59.91;101043.06;7400563;19;1593;-50
2022/06/17 00:16:20;;;;;;;;;;;;;;;20.78;60.19;101038.94;7402422;19;1699;-50
2022/06/17 00:18:51;;;;;;;;;;;;;;;20.85;60.16;101047.31;7399431;19;1912;-49
2022/06/17 00:21:28;;;;;;;;;;;;;;;20.92;60.08;101034.16;7401848;19;1491;-49
2022/06/17 00:23:58;;;;;;;;;;;;;;;20.97;59.53;101046.19;7399990;19;1869;-49
2022/06/17 00:26:30;;;;;;;;;;;;;;;20.96;59.18;101028.34;7401563;19;1566;-49
2022/06/17 00:29:00;;;;;;;;;;;;;;;21.01;59.22;101028.78;7401253;19;1635;-49
2022/06/17 00:31:33;;;;;;;;;;;;;;;20.96;59.26;101022.97;7400799;19;1333;-49
2022/06/17 00:34:12;;;;;;;;;;;;;;;20.94;59.53;101040.22;7402679;19;1509;-49
2022/06/17 00:36:57;;;;;;;;;;;;;;;20.94;59.61;101038.38;7408922;19;1560;-49
2022/06/17 00:39:27;;;;;;;;;;;;;;;20.91;59.58;101030.63;7409058;19;1591;-49
2022/06/17 00:42:04;;;;;;;;;;;;;;;20.88;59.65;101030.88;7405559;19;2135;-49
2022/06/17 00:44:40;;;;;;;;;;;;;;;20.82;59.56;101024.22;7407160;19;1914;-49
2022/06/17 00:47:17;;;;;;;;;;;;;;;20.83;59.89;101020.56;7408612;19;1786;-49
2022/06/17 00:49:50;;;;;;;;;;;;;;;20.74;60.42;101029.47;7408621;19;1781;-50
2022/06/17 00:52:26;;;;;;;;;;;;;;;20.64;59.20;101031.31;7408091;19;1699;-50
2022/06/17 00:55:15;;;;;;;;;;;;;;;20.68;59.32;101039.94;7407980;19;1938;-49
2022/06/17 00:57:50;;;;;;;;;;;;;;;20.62;58.90;101004.56;7407966;19;1735;-50
2022/06/17 01:00:23;;;;;;;;;;;;;;;20.77;59.32;101007.69;7407668;19;1672;-49
2022/06/17 01:02:55;;;;;;;;;;;;;;;20.77;59.31;101022.94;7406695;19;1456;-48
2022/06/17 01:05:45;;;;;;;;;;;;;;;;;;;;;
2022/06/17 01:11:08;;;;;;;;;;;;;;;20.69;58.77;101033.56;7407604;19;1698;-48
2022/06/17 01:13:41;;;;;;;;;;;;;;;20.64;58.02;101007.97;7407222;19;1316;-48
2022/06/17 01:16:11;;;;;;;;;;;;;;;20.76;58.44;101024.81;7407712;19;1656;-48
2022/06/17 01:18:46;;;;;;;;;;;;;;;20.85;58.54;101021.28;7405205;19;1999;-48
2022/06/17 01:21:19;;;;;;;;;;;;;;;20.90;58.20;101002.03;7407621;19;1487;-48
2022/06/17 01:24:07;;;;;;;;;;;;;;;20.80;58.41;101006.56;7406049;19;1851;-48
2022/06/17 01:26:39;;;;;;;;;;;;;;;20.86;58.63;101022.97;7407468;19;2739;-48
2022/06/17 01:29:16;;;;;;;;;;;;;;;20.85;58.47;100999.78;7407714;19;1463;-48
2022/06/17 01:31:49;;;;;;;;;;;;;;;20.87;58.58;101005.00;7406992;19;1430;-48
2022/06/17 01:34:24;;;;;;;;;;;;;;;20.88;58.35;101004.00;7406780;19;1800;-48
2022/06/17 01:36:54;;;;;;;;;;;;;;;20.75;58.65;100987.31;7406427;19;1650;-48
2022/06/17 01:39:50;;;;;;;;;;;;;;;20.79;58.90;100999.47;7407339;19;1506;-48
2022/06/17 01:42:27;;;;;;;;;;;;;;;20.81;58.97;101010.94;7406452;19;1320;-49
2022/06/17 01:44:56;;;;;;;;;;;;;;;20.88;58.57;101008.53;7404937;19;1849;-48
2022/06/17 01:47:32;;;;;;;;;;;;;;;20.89;58.64;100994.09;7405582;19;1570;-48
2022/06/17 01:50:12;;;;;;;;;;;;;;;20.83;58.86;100974.00;7406665;19;1571;-48
2022/06/17 01:52:47;;;;;;;;;;;;;;;20.81;58.33;100995.66;7406680;19;1400;-48
2022/06/17 01:55:21;;;;;;;;;;;;;;;20.72;58.37;100976.84;7406843;19;1500;-48
2022/06/17 01:57:54;;;;;;;;;;;;;;;20.54;58.79;100985.59;7405989;19;1694;-48
2022/06/17 02:00:25;;;;;;;;;;;;;;;20.48;58.86;100980.78;7405191;19;3377;-58
2022/06/17 02:02:57;;;;;;;;;;;;;;;20.49;59.21;100993.19;7403426;19;1714;-58
2022/06/17 02:05:27;;;;;;;;;;;;;;;20.58;58.62;100997.75;7405297;19;1846;-63
2022/06/17 02:07:57;;;;;;;;;;;;;;;20.66;58.77;100989.00;7408468;19;1376;-64
2022/06/17 02:10:30;;;;;;;;;;;;;;;20.63;58.68;100989.28;7408076;19;1451;-58
2022/06/17 02:12:59;;;;;;;;;;;;;;;20.65;58.93;100977.44;7407932;19;1294;-64
2022/06/17 02:15:28;;;;;;;;;;;;;;;20.69;58.57;100983.38;7407773;19;1391;-58
2022/06/17 02:17:57;;;;;;;;;;;;;;;20.62;59.01;100977.69;7406558;19;1539;-58
2022/06/17 02:20:26;;;;;;;;;;;;;;;20.66;58.05;100989.00;7406146;19;1355;-62
2022/06/17 02:22:55;;;;;;;;;;;;;;;20.61;58.41;100986.75;7408707;19;1332;-63
2022/06/17 02:25:27;;;;;;;;;;;;;;;20.63;58.40;100991.97;7403369;19;1870;-58
2022/06/17 02:27:59;;;;;;;;;;;;;;;20.64;58.48;100994.53;7405734;19;1435;-58
2022/06/17 02:30:29;;;;;;;;;;;;;;;20.67;58.15;100990.69;7405482;19;1368;-64
2022/06/17 02:32:59;;;;;;;;;;;;;;;20.69;57.98;100990.56;7407484;19;1396;-63
2022/06/17 02:35:31;;;;;;;;;;;;;;;20.64;58.32;101009.81;7407116;19;1428;-63
2022/06/17 02:38:00;;;;;;;;;;;;;;;20.69;57.87;100990.56;7407996;19;1372;-58
2022/06/17 02:40:32;;;;;;;;;;;;;;;20.73;58.23;100997.34;7408337;19;1320;-63
2022/06/17 02:43:04;;;;;;;;;;;;;;;20.63;58.21;100995.53;7408078;19;1262;-63
2022/06/17 02:45:34;;;;;;;;;;;;;;;20.65;58.38;100998.06;7405538;19;1857;-58
2022/06/17 02:48:04;;;;;;;;;;;;;;;20.65;58.23;100988.19;7405866;19;1337;-63
2022/06/17 02:50:33;;;;;;;;;;;;;;;20.64;58.12;100991.84;7407231;19;1372;-59
2022/06/17 02:53:03;;;;;;;;;;;;;;;20.64;58.19;100986.47;7406681;19;1388;-58
2022/06/17 02:55:33;;;;;;;;;;;;;;;20.69;57.89;100993.25;7406862;19;1281;-58
2022/06/17 02:58:08;;;;;;;;;;;;;;;20.63;57.83;100982.09;7404452;19;1367;-63
2022/06/17 03:00:37;;;;;;;;;;;;;;;20.65;58.01;100998.94;7405055;19;1753;-63
2022/06/17 03:03:08;;;;;;;;;;;;;;;20.62;57.84;100988.44;7404941;19;1359;-64
2022/06/17 03:05:39;;;;;;;;;;;;;;;20.62;57.87;100985.75;7402722;19;1874;-63
2022/06/17 03:08:18;;;;;;;;;;;;;;;20.61;57.57;100978.69;7405588;19;1243;-58
2022/06/17 03:23:26;;;;;;;;;;;;;;;20.62;56.47;100992.97;6912445;19;10001691;-46
2022/06/17 03:25:59;;;;;;;;;;;;;;;20.64;56.80;100980.25;7428040;19;1858;-46
2022/06/17 03:28:30;;;;;;;;;;;;;;;20.68;56.69;100994.25;7429659;19;1469;-47
2022/06/17 03:31:03;;;;;;;;;;;;;;;20.71;56.45;101002.03;7429196;19;2075;-46
2022/06/17 03:33:34;;;;;;;;;;;;;;;20.68;56.47;101003.16;7429980;19;1942;-46
2022/06/17 03:36:06;;;;;;;;;;;;;;;20.73;56.18;100983.91;7429216;19;1764;-47
2022/06/17 03:38:41;;;;;;;;;;;;;;;20.71;56.52;100991.28;7428471;19;2239;-49
2022/06/17 03:41:12;;;;;;;;;;;;;;;20.60;56.96;101008.38;7429240;19;1829;-46
2022/06/17 03:43:43;;;;;;;;;;;;;;;20.65;56.75;100998.94;7429349;19;1755;-46
2022/06/17 03:46:11;;;;;;;;;;;;;;;20.77;56.00;101004.13;7429438;19;1782;-46
2022/06/17 03:48:43;;;;;;;;;;;;;;;20.73;55.66;100983.91;7427855;19;1775;-46
2022/06/17 03:51:14;;;;;;;;;;;;;;;20.77;55.56;101009.50;7426851;19;1845;-46
2022/06/17 03:53:46;;;;;;;;;;;;;;;20.74;56.01;100999.91;7428845;19;1651;-46
2022/06/17 03:56:18;;;;;;;;;;;;;;;20.78;55.75;101006.69;7428239;19;1738;-48
2022/06/17 03:58:46;;;;;;;;;;;;;;;20.79;55.83;101010.22;7428649;19;1675;-47
2022/06/17 04:01:17;;;;;;;;;;;;;;;20.80;55.71;101001.19;7427110;19;1751;-47
2022/06/17 04:03:52;;;;;;;;;;;;;;;20.76;55.51;101011.38;7430327;19;1869;-45
2022/06/17 04:06:22;;;;;;;;;;;;;;;20.81;55.85;101010.94;7431752;19;1712;-46
2022/06/17 04:08:57;;;;;;;;;;;;;;;20.92;55.61;101013.47;7432424;19;1955;-46
2022/06/17 04:11:27;;;;;;;;;;;;;;;20.98;55.83;101018.28;7427356;19;1954;-49
2022/06/17 04:13:56;;;;;;;;;;;;;;;20.95;55.95;101025.78;7428149;19;1571;-49
2022/06/17 04:16:28;;;;;;;;;;;;;;;20.96;56.11;101014.91;7429094;19;1561;-48
2022/06/17 04:19:03;;;;;;;;;;;;;;;20.91;55.90;101013.63;7433966;19;1955;-47
2022/06/17 04:21:31;;;;;;;;;;;;;;;20.95;55.97;101023.97;7433589;19;1572;-46
2022/06/17 04:24:06;;;;;;;;;;;;;;;21.04;55.85;101009.66;7409844;19;2051;-46
2022/06/17 04:26:36;;;;;;;;;;;;;;;20.99;56.05;101001.19;7406812;19;1487;-46
2022/06/17 04:29:06;;;;;;;;;;;;;;;20.97;55.86;101013.91;7405426;19;1459;-47
2022/06/17 04:31:35;;;;;;;;;;;;;;;21.02;55.83;101030.44;7404469;19;1865;-46
2022/06/17 04:34:06;;;;;;;;;;;;;;;20.95;55.94;101015.03;7403821;19;1530;-47
2022/06/17 04:36:36;;;;;;;;;;;;;;;20.97;55.99;101027.34;7405813;19;1649;-46
2022/06/17 04:39:17;;;;;;;;;;;;;;;20.91;56.23;101014.50;7404631;19;1584;-46
2022/06/17 04:41:46;;;;;;;;;;;;;;;21.04;56.15;101025.78;7404930;19;1780;-47
2022/06/17 04:44:16;;;;;;;;;;;;;;;21.19;56.52;101002.00;7404219;19;1547;-46
2022/06/17 04:46:47;;;;;;;;;;;;;;;21.24;56.29;100998.88;7404070;19;1577;-46
2022/06/17 04:49:18;;;;;;;;;;;;;;;21.17;57.14;101009.38;7404562;19;1628;-47
2022/06/17 04:51:46;;;;;;;;;;;;;;;21.30;55.75;101014.44;7404612;19;1850;-47
2022/06/17 04:54:18;;;;;;;;;;;;;;;21.28;56.09;101005.66;7403336;19;1817;-47
2022/06/17 04:56:52;;;;;;;;;;;;;;;21.23;55.85;101010.63;7403473;19;1915;-47
2022/06/17 04:59:28;;;;;;;;;;;;;;;21.17;56.10;101005.81;7405276;19;1476;-46
2022/06/17 05:01:56;;;;;;;;;;;;;;;21.31;55.98;101013.44;7404473;19;1780;-46
2022/06/17 05:04:25;;;;;;;;;;;;;;;21.40;55.67;101015.25;7404169;19;1687;-48
2022/06/17 05:06:53;;;;;;;;;;;;;;;21.42;55.19;101009.72;7403957;19;1479;-45
2022/06/17 05:09:30;;;;;;;;;;;;;;;21.47;55.29;100995.88;7403705;19;1490;-47
2022/06/17 05:12:01;;;;;;;;;;;;;;;21.31;55.53;101009.88;7401375;19;1848;-45
2022/06/17 05:14:35;;;;;;;;;;;;;;;21.44;55.72;101008.63;7400056;19;1831;-47
2022/06/17 05:17:03;;;;;;;;;;;;;;;21.60;55.61;101007.16;7404638;19;1838;-47
2022/06/17 05:19:32;;;;;;;;;;;;;;;21.68;56.40;101001.88;7402029;19;1825;-46
2022/06/17 05:22:00;;;;;;;;;;;;;;;21.73;56.10;101021.16;7402258;19;1576;-47
2022/06/17 05:24:32;;;;;;;;;;;;;;;21.78;55.58;101012.63;7404742;19;1609;-46
2022/06/17 05:27:01;;;;;;;;;;;;;;;21.79;55.67;101014.34;7401045;19;1876;-47
2022/06/17 05:29:29;;;;;;;;;;;;;;;21.85;55.80;101008.34;7401485;19;1497;-48
2022/06/17 05:31:57;;;;;;;;;;;;;;;21.91;56.32;101005.06;7400413;19;1857;-46
2022/06/17 05:34:26;;;;;;;;;;;;;;;21.93;56.05;101011.13;7401136;19;1440;-46
2022/06/17 05:36:56;;;;;;;;;;;;;;;21.95;56.43;101008.31;7402600;19;1644;-46
2022/06/17 05:39:25;;;;;;;;;;;;;;;21.98;56.80;100997.22;7404517;19;1494;-46
2022/06/17 05:41:56;;;;;;;;;;;;;;;22.07;56.79;100996.34;7400035;19;2409;-46
2022/06/17 05:44:24;;;;;;;;;;;;;;;22.27;56.85;101002.47;7401288;19;1649;-47
2022/06/17 05:46:52;;;;;;;;;;;;;;;22.20;56.49;100996.84;7402238;19;1578;-46
2022/06/17 05:49:20;;;;;;;;;;;;;;;22.17;56.61;101012.44;7403112;19;1575;-47
2022/06/17 05:51:49;;;;;;;;;;;;;;;22.17;57.70;100985.50;7403271;19;1850;-46
2022/06/17 05:54:17;;;;;;;;;;;;;;;22.19;56.53;100989.75;7401468;19;2013;-46
2022/06/17 05:56:45;;;;;;;;;;;;;;;22.13;56.92;100990.34;7402310;19;1493;-46
2022/06/17 05:59:17;;;;;;;;;;;;;;;22.10;57.62;100984.41;7402395;19;1456;-46
2022/06/17 06:01:45;;;;;;;;;;;;;;;22.05;57.87;101015.31;7402459;19;1737;-47
2022/06/17 06:04:14;;;;;;;;;;;;;;;22.04;57.98;100991.22;7400507;19;1722;-47
2022/06/17 06:06:42;;;;;;;;;;;;;;;22.00;57.92;100981.75;7404637;19;1003;-47
2022/06/17 06:09:11;;;;;;;;;;;;;;;22.07;58.25;100999.03;7402565;19;1839;-46
2022/06/17 06:11:39;;;;;;;;;;;;;;;22.03;58.03;100985.00;7402336;19;1848;-47
2022/06/17 06:14:08;;;;;;;;;;;;;;;22.04;58.51;100985.84;7401102;19;1769;-48
2022/06/17 06:16:39;;;;;;;;;;;;;;;22.07;58.32;100995.50;7402282;19;1671;-48
2022/06/17 06:19:07;;;;;;;;;;;;;;;22.02;58.40;100967.16;7403621;19;1752;-46
2022/06/17 06:21:35;;;;;;;;;;;;;;;22.09;58.18;100982.72;7402218;19;2022;-47
2022/06/17 06:24:04;;;;;;;;;;;;;;;22.10;58.45;100973.63;7402804;19;1758;-46
2022/06/17 06:26:32;;;;;;;;;;;;;;;22.10;59.31;100979.84;7402459;19;1945;-46
2022/06/17 06:29:00;;;;;;;;;;;;;;;22.10;58.35;100969.09;7401984;19;1877;-47
2022/06/17 06:31:30;;;;;;;;;;;;;;;22.11;58.62;100968.09;7402735;19;1672;-46
2022/06/17 06:34:01;;;;;;;;;;;;;;;22.13;58.53;100968.78;7399726;19;1842;-47
2022/06/17 06:36:29;;;;;;;;;;;;;;;22.15;58.62;100969.50;7401194;19;1816;-47
2022/06/17 06:38:57;;;;;;;;;;;;;;;22.16;58.51;100973.91;7401643;19;1717;-47
2022/06/17 06:41:26;;;;;;;;;;;;;;;22.04;59.01;100946.31;7400201;19;1546;-47
2022/06/17 06:43:55;;;;;;;;;;;;;;;21.16;59.88;100963.78;7401062;19;1598;-47
2022/06/17 06:46:25;;;;;;;;;;;;;;;20.62;60.97;100968.78;7401386;19;1490;-47
2022/06/17 06:48:54;;;;;;;;;;;;;;;20.54;61.57;100969.47;7400334;19;1781;-46
2022/06/17 06:51:24;;;;;;;;;;;;;;;20.43;61.76;100940.91;7400631;19;1609;-46
2022/06/17 06:53:53;;;;;;;;;;;;;;;20.44;61.37;100957.88;7397783;19;1864;-46
2022/06/17 06:56:22;;;;;;;;;;;;;;;20.30;61.52;100947.53;7400056;19;1660;-47
2022/06/17 06:58:50;;;;;;;;;;;;;;;20.27;61.40;100960.25;7399385;19;1681;-47
2022/06/17 07:01:18;;;;;;;;;;;;;;;20.31;61.73;100949.22;7401380;19;1422;-47
2022/06/17 07:03:46;;;;;;;;;;;;;;;20.34;61.93;100940.91;7400938;19;2049;-47
2022/06/17 07:06:15;;;;;;;;;;;;;;;20.35;62.32;100969.44;7400544;19;1572;-47
2022/06/17 07:08:46;;;;;;;;;;;;;;;20.44;61.98;100947.13;7400940;19;1745;-47
2022/06/17 07:11:16;;;;;;;;;;;;;;;20.42;62.13;100944.56;7400828;19;1414;-48
2022/06/17 07:13:45;;;;;;;;;;;;;;;20.34;62.87;100943.59;7398133;19;1860;-47
2022/06/17 07:16:14;;;;;;;;;;;;;;;20.38;62.72;100939.63;7398478;19;1927;-48
2022/06/17 07:18:43;;;;;;;;;;;;;;;20.40;63.02;100959.97;7400423;19;1458;-47
2022/06/17 07:21:12;;;;;;;;;;;;;;;20.37;62.81;100951.34;7400575;19;1726;-47
2022/06/17 07:23:41;;;;;;;;;;;;;;;20.30;63.21;100939.47;7399743;19;1815;-47
2022/06/17 07:26:15;;;;;;;;;;;;;;;20.35;63.20;100937.22;7400599;19;1828;-47
2022/06/17 07:28:43;;;;;;;;;;;;;;;20.34;63.43;100947.13;7400977;19;1661;-47
2022/06/17 07:31:11;;;;;;;;;;;;;;;20.32;63.27;100943.72;7399532;19;1847;-47
2022/06/17 07:33:40;;;;;;;;;;;;;;;20.32;63.28;100921.41;7395876;19;1855;-47
2022/06/17 07:36:09;;;;;;;;;;;;;;;20.27;63.54;100932.53;7399376;19;1670;-47
2022/06/17 07:41:26;;;;;;;;;;;;;;;20.36;63.17;100946.97;7400083;19;1471;-46
2022/06/17 07:43:55;;;;;;;;;;;;;;;20.44;63.28;100965.94;7399454;19;1686;-48
2022/06/17 07:46:24;;;;;;;;;;;;;;;20.39;63.46;100949.38;7397909;19;1608;-47
2022/06/17 07:48:52;;;;;;;;;;;;;;;20.39;64.07;100957.44;7397852;19;1659;-47
2022/06/17 07:51:20;;;;;;;;;;;;;;;20.34;65.11;100946.28;7399443;19;1737;-48
2022/06/17 07:53:49;;;;;;;;;;;;;;;20.68;64.50;100943.19;7396933;19;1844;-47
2022/06/17 07:56:18;;;;;;;;;;;;;;;21.11;62.78;100945.41;7400011;19;1518;-47
2022/06/17 07:58:49;;;;;;;;;;;;;;;21.41;62.02;100941.63;7403635;19;1419;-47
2022/06/17 08:01:17;;;;;;;;;;;;;;;21.65;61.48;100934.91;7406177;19;1826;-47
2022/06/17 08:03:46;;;;;;;;;;;;;;;21.01;63.22;100944.59;7403228;19;1848;-47
2022/06/17 08:06:16;;;;;;;;;;;;;;;20.23;63.95;100955.28;7404388;19;1485;-47
2022/06/17 08:08:45;;;;;;;;;;;;;;;19.91;64.46;100947.44;7404786;19;1412;-48
2022/06/17 08:11:14;;;;;;;;;;;;;;;19.72;64.54;100945.56;7406219;19;1565;-47
2022/06/17 08:13:42;;;;;;;;;;;;;;;19.65;64.51;100945.22;7403516;19;1857;-46
2022/06/17 08:16:14;;;;;;;;;;;;;;;19.62;64.45;100934.78;7405712;19;1936;-47
2022/06/17 08:18:42;;;;;;;;;;;;;;;19.57;64.52;100940.53;7407584;19;1968;-46
2022/06/17 08:21:11;;;;;;;;;;;;;;;19.61;64.39;100954.53;7403018;19;1880;-47
2022/06/17 08:23:40;;;;;;;;;;;;;;;19.52;64.08;100939.22;7405761;19;1672;-47
2022/06/17 08:26:08;;;;;;;;;;;;;;;19.56;64.03;100943.38;7406042;19;1777;-46
2022/06/17 08:28:37;;;;;;;;;;;;;;;19.62;63.91;100934.78;7404676;19;1937;-46
2022/06/17 08:31:05;;;;;;;;;;;;;;;19.54;63.85;100937.28;7405772;19;1952;-46
2022/06/17 08:33:36;;;;;;;;;;;;;;;19.55;63.73;100923.72;7404095;19;1901;-47
2022/06/17 08:36:06;;;;;;;;;;;;;;;19.50;63.84;100936.69;7405495;19;1894;-48
2022/06/17 08:38:36;;;;;;;;;;;;;;;19.50;63.80;100925.97;7405289;19;1752;-46
2022/06/17 08:41:09;;;;;;;;;;;;;;;19.46;63.81;100941.47;7406751;19;1482;-46
2022/06/17 08:43:46;;;;;;;;;;;;;;;19.44;63.68;100940.75;7404565;19;1779;-47
2022/06/17 08:46:16;;;;;;;;;;;;;;;19.41;63.53;100927.59;7404795;19;1973;-47
2022/06/17 08:48:54;;;;;;;;;;;;;;;19.47;63.25;100942.31;7402777;19;1875;-46
2022/06/17 08:51:30;;;;;;;;;;;;;;;19.38;63.15;100927.88;7404734;19;1437;-47
2022/06/17 08:54:07;;;;;;;;;;;;;;;19.42;63.25;100933.84;7400121;19;1871;-47
2022/06/17 08:56:38;;;;;;;;;;;;;;;19.34;63.28;100929.16;7405012;19;1879;-49
2022/06/17 08:59:15;;;;;;;;;;;;;;;19.38;63.08;100927.88;7405271;19;1757;-49
2022/06/17 09:01:48;;;;;;;;;;;;;;;19.34;62.88;100909.50;7406089;19;1760;-47
2022/06/17 09:04:28;;;;;;;;;;;;;;;19.36;63.35;100912.91;7405417;19;1843;-47
2022/06/17 09:07:04;;;;;;;;;;;;;;;19.30;63.23;100910.75;7403088;19;1538;-47
2022/06/17 09:09:45;;;;;;;;;;;;;;;19.28;63.42;100919.81;7405980;19;1592;-46
2022/06/17 09:12:17;;;;;;;;;;;;;;;19.27;63.13;100926.13;7404632;19;1445;-46
2022/06/17 09:14:51;;;;;;;;;;;;;;;19.24;63.02;100925.56;7400340;19;1849;-46
2022/06/17 09:17:24;;;;;;;;;;;;;;;19.23;62.93;100923.84;7404718;19;1673;-46
2022/06/17 09:19:58;;;;;;;;;;;;;;;19.26;63.24;100908.34;7404497;19;1898;-46
2022/06/17 09:22:30;;;;;;;;;;;;;;;19.23;63.07;100907.78;7402448;19;1680;-47
2022/06/17 09:25:03;;;;;;;;;;;;;;;19.47;62.32;100915.50;7405370;19;1769;-46
2022/06/17 09:27:34;;;;;;;;;;;;;;;19.62;62.34;100907.94;7404445;19;1556;-48
2022/06/17 09:30:05;;;;;;;;;;;;;;;19.68;62.09;100907.41;7405006;19;1829;-47
2022/06/17 09:32:36;;;;;;;;;;;;;;;19.71;62.61;100907.13;7402397;19;1870;-47
2022/06/17 09:35:09;;;;;;;;;;;;;;;19.80;62.54;100906.31;7404007;19;1812;-47
2022/06/17 09:37:40;;;;;;;;;;;;;;;19.82;62.28;100907.03;7403724;19;1516;-47
2022/06/17 09:40:12;;;;;;;;;;;;;;;19.81;62.42;100899.97;7405538;19;1135;-47
2022/06/17 09:42:43;;;;;;;;;;;;;;;19.80;62.68;100892.91;7402474;19;1853;-47
2022/06/17 09:45:15;;;;;;;;;;;;;;;20.02;65.38;100886.44;7402323;19;1644;-47
2022/06/17 09:47:46;;;;;;;;;;;;;;;20.19;66.24;100892.97;7402505;19;1622;-47
2022/06/17 09:50:20;;;;;;;;;;;;;;;20.30;67.08;100901.88;7402299;19;1704;-47
2022/06/17 09:52:52;;;;;;;;;;;;;;;20.30;67.70;100891.97;7398157;19;1861;-47
2022/06/17 09:55:24;;;;;;;;;;;;;;;19.92;67.06;100896.31;7403620;19;1490;-46
2022/06/17 09:57:55;;;;;;;;;;;;;;;19.54;66.22;100883.63;7403659;19;1535;-47
2022/06/17 10:00:24;;;;;;;;;;;;;;;20.27;65.21;100882.38;7402487;19;1550;-46
2022/06/17 10:02:55;;;;;;;;;;;;;;;20.82;63.84;100875.56;7403227;19;1810;-47
2022/06/17 10:05:32;;;;;;;;;;;;;;;21.14;62.89;100868.97;7401709;19;1718;-47
2022/06/17 10:08:03;;;;;;;;;;;;;;;21.34;62.89;100865.19;7402140;19;1798;-46
2022/06/17 10:10:35;;;;;;;;;;;;;;;21.57;62.80;100860.31;7402711;19;1399;-47
2022/06/17 10:13:10;;;;;;;;;;;;;;;21.61;62.98;100855.47;7401264;19;1879;-48
2022/06/17 10:18:31;;;;;;;;;;;;;;;21.72;63.43;100852.56;7401732;19;1955;-49
2022/06/17 10:18:37;;;;;;;;;;;;;;;21.87;63.91;100860.97;7401757;19;1736;-47
2022/06/17 10:21:17;;;;;;;;;;;;;;;21.92;64.80;100852.44;7400253;19;1643;-48
2022/06/17 10:23:52;;;;;;;;;;;;;;;22.03;62.88;100860.28;7401111;19;1938;-48
2022/06/17 10:26:23;;;;;;;;;;;;;;;22.10;63.21;100864.03;7400979;19;1609;-49
2022/06/17 10:29:07;;;;;;;;;;;;;;;22.22;63.04;100860.16;7402511;19;1759;-48
2022/06/17 10:31:37;;;;;;;;;;;;;;;22.22;63.23;100857.47;7401606;19;1702;-48
2022/06/17 10:34:07;;;;;;;;;;;;;;;22.21;62.94;100858.44;7401296;19;1859;-49
2022/06/17 10:36:38;;;;;;;;;;;;;;;22.16;63.53;100852.69;7401341;19;1517;-48
2022/06/17 10:39:10;;;;;;;;;;;;;;;22.17;63.70;100834.66;7399994;19;1626;-48
2022/06/17 10:41:39;;;;;;;;;;;;;;;22.17;63.81;100846.28;7402407;19;1508;-48
2022/06/17 10:44:09;;;;;;;;;;;;;;;22.12;63.07;100848.59;7402562;19;1767;-48
2022/06/17 10:46:39;;;;;;;;;;;;;;;22.12;63.34;100842.34;7400712;19;1490;-47
2022/06/17 10:49:14;;;;;;;;;;;;;;;22.04;63.50;100846.69;7401734;19;1523;-47
2022/06/17 10:51:46;;;;;;;;;;;;;;;22.04;64.41;100843.13;7401308;19;1628;-47
2022/06/17 10:54:18;;;;;;;;;;;;;;;22.03;64.04;100844.13;7400281;19;1847;-48
2022/06/17 10:56:58;;;;;;;;;;;;;;;22.02;64.43;100823.56;7401610;19;1395;-48
2022/06/17 10:59:34;;;;;;;;;;;;;;;22.02;63.82;100845.13;7401019;19;1818;-48
2022/06/17 11:02:02;;;;;;;;;;;;;;;21.99;64.13;100827.44;7401422;19;1653;-48
2022/06/17 11:04:32;;;;;;;;;;;;;;;22.03;63.86;100842.28;7400611;19;1575;-47
2022/06/17 11:07:04;;;;;;;;;;;;;;;22.05;63.91;100828.66;7401806;19;1801;-50
2022/06/17 11:09:35;;;;;;;;;;;;;;;22.07;63.74;100848.22;7401778;19;1763;-47
2022/06/17 11:12:07;;;;;;;;;;;;;;;22.11;63.58;100819.97;7400515;19;1658;-48
2022/06/17 11:14:41;;;;;;;;;;;;;;;22.17;63.53;100831.97;7398352;19;1859;-47
2022/06/17 11:17:18;;;;;;;;;;;;;;;22.17;63.24;100835.50;7400318;19;1619;-48
2022/06/17 11:19:48;;;;;;;;;;;;;;;22.16;63.52;100833.84;7400293;19;1667;-48
2022/06/17 11:22:23;;;;;;;;;;;;;;;22.14;63.17;100822.34;7397315;19;1538;-47
2022/06/17 11:24:55;;;;;;;;;;;;;;;22.13;63.24;100823.34;7400722;19;1777;-47
2022/06/17 11:27:36;;;;;;;;;;;;;;;22.13;63.49;100812.59;7400486;19;1450;-48
2022/06/17 11:30:20;;;;;;;;;;;;;;;22.10;63.11;100814.72;7401277;19;1651;-48
2022/06/17 11:32:48;;;;;;;;;;;;;;;22.10;63.54;100812.88;7401014;19;1545;-47
2022/06/17 11:35:34;;;;;;;;;;;;;;;22.09;63.17;100807.66;7403974;19;1861;-49
2022/06/17 11:38:07;;;;;;;;;;;;;;;22.10;63.61;100810.19;7405287;19;1707;-48
2022/06/17 11:40:36;;;;;;;;;;;;;;;22.09;63.01;100800.44;7406722;19;1389;-48
2022/06/17 11:43:06;;;;;;;;;;;;;;;22.12;62.95;100804.66;7406278;19;1811;-47
2022/06/17 11:45:36;;;;;;;;;;;;;;;22.10;63.33;100796.72;7407333;19;1793;-47
2022/06/17 11:48:06;;;;;;;;;;;;;;;22.11;63.18;100782.25;7406703;19;1765;-48
2022/06/17 11:50:35;;;;;;;;;;;;;;;22.08;62.41;100793.34;7407513;19;1742;-47
2022/06/17 11:53:08;;;;;;;;;;;;;;;22.12;61.60;100783.94;7406089;19;1772;-48
2022/06/17 11:55:42;;;;;;;;;;;;;;;22.13;62.07;100784.81;7403562;19;1851;-47
2022/06/17 11:58:11;;;;;;;;;;;;;;;22.11;62.13;100782.25;7404877;19;1764;-47
2022/06/17 12:00:46;;;;;;;;;;;;;;;22.16;62.04;100777.28;7405831;19;1686;-47
2022/06/17 12:03:15;;;;;;;;;;;;;;;22.17;61.91;100789.72;7405727;19;1821;-47
2022/06/17 12:05:43;;;;;;;;;;;;;;;22.10;62.30;100777.03;7404515;19;1701;-47
2022/06/17 12:08:19;;;;;;;;;;;;;;;22.13;61.66;100774.03;7405691;19;1560;-48
2022/06/17 12:10:49;;;;;;;;;;;;;;;22.17;61.89;100776.25;7407063;19;1821;-48
2022/06/17 12:13:30;;;;;;;;;;;;;;;22.13;61.89;100766.78;7404397;19;1697;-48
2022/06/17 12:16:02;;;;;;;;;;;;;;;22.12;62.14;100767.78;7406911;19;1480;-47
2022/06/17 12:18:34;;;;;;;;;;;;;;;22.19;61.51;100774.25;7405527;19;1720;-47
2022/06/17 12:21:11;;;;;;;;;;;;;;;22.14;61.73;100775.72;7405463;19;1663;-48
2022/06/17 12:23:44;;;;;;;;;;;;;;;22.15;61.43;100767.47;7404845;19;1767;-47
2022/06/17 12:26:14;;;;;;;;;;;;;;;22.13;61.44;100769.50;7404575;19;1597;-48
2022/06/17 12:28:46;;;;;;;;;;;;;;;22.14;61.29;100765.78;7406645;19;1832;-48
2022/06/17 12:31:19;;;;;;;;;;;;;;;22.13;61.29;100747.94;7405803;19;2014;-48
2022/06/17 12:33:52;;;;;;;;;;;;;;;22.16;61.45;100752.16;7405701;19;1857;-47
2022/06/17 12:36:22;;;;;;;;;;;;;;;22.17;61.09;100751.19;7405432;19;1653;-48
2022/06/17 12:38:58;;;;;;;;;;;;;;;22.13;61.69;100750.63;7404675;19;1891;-47
2022/06/17 12:41:31;;;;;;;;;;;;;;;22.15;61.16;100743.25;7404361;19;1706;-47
2022/06/17 12:44:07;;;;;;;;;;;;;;;22.15;61.19;100740.56;7404236;19;1682;-47
2022/06/17 12:46:38;;;;;;;;;;;;;;;22.19;60.86;100731.16;7403769;19;1561;-48
2022/06/17 12:54:48;;;;;;;;;;;;;;;22.14;61.25;100738.84;7405125;19;1845;-47
2022/06/17 12:57:20;;;;;;;;;;;;;;;22.15;61.05;100735.16;7405055;19;1797;-48
2022/06/17 12:59:55;;;;;;;;;;;;;;;22.15;61.36;100724.41;7404791;19;1725;-48
2022/06/17 13:02:27;;;;;;;;;;;;;;;22.15;61.46;100723.56;7404736;19;1704;-47
2022/06/17 13:05:10;;;;;;;;;;;;;;;22.16;61.27;100730.63;7404946;19;1776;-48
2022/06/17 13:07:49;;;;;;;;;;;;;;;22.16;61.34;100722.53;7404137;19;1670;-48
2022/06/17 13:13:09;;;;;;;;;;;;;;;22.16;61.00;100719.84;7404143;19;1712;-47
2022/06/17 13:15:41;;;;;;;;;;;;;;;22.16;61.14;100725.22;7403326;19;1853;-47
2022/06/17 13:18:12;;;;;;;;;;;;;;;22.17;61.19;100716.16;7404323;19;1666;-47
2022/06/17 13:20:44;;;;;;;;;;;;;;;22.16;61.35;100715.31;7404315;19;1898;-47
2022/06/17 13:23:18;;;;;;;;;;;;;;;22.17;61.04;100721.53;7402046;19;1661;-48
2022/06/17 13:25:52;;;;;;;;;;;;;;;22.16;61.14;100709.94;7403851;19;1673;-47
2022/06/17 13:28:24;;;;;;;;;;;;;;;22.17;61.28;100697.31;7403647;19;1805;-50
2022/06/17 13:30:55;;;;;;;;;;;;;;;22.19;61.03;100701.53;7403380;19;1607;-47
2022/06/17 13:33:27;;;;;;;;;;;;;;;22.15;61.10;100702.84;7404226;19;1717;-47
2022/06/17 13:35:57;;;;;;;;;;;;;;;22.16;61.15;100696.47;7401930;19;1865;-47
2022/06/17 13:38:29;;;;;;;;;;;;;;;22.20;61.03;100696.97;7403456;19;1711;-48